Terminal Aerodrome Forecast
Issued by NWS Quad Cities IA IL

Home | Current Version | Previous Version | Text Only | Print | Product List | Glossary On
Versions: 1 2 3 4 5 6 7 8 9 10 11 12 13 14 15 16
000
FTUS43 KDVN 261200 AAA
TAFMLI
TAF AMD
KMLI 261200Z 2612/2712 28007KT P6SM VCSH SCT050 BKN080
     FM261330 28009KT P6SM BKN080
     FM261700 28010KT P6SM VCSH SCT050 BKN070
     FM270000 31007KT P6SM SCT070
     FM270300 34003KT P6SM SKC=

USA.gov is the U.S. government's official web portal to all federal, state and local government web resources and services.